Time;durP1;ratioP1;P1;durP2;ratioP2;P2;SDS_P1;SDS_P2;PMS_P1;PMS_P2;Temp;Humidity;BMP_temperature;BMP_pressure;BME280_temperature;BME280_humidity;BME280_pressure;Samples;Min_cycle;Max_cycle;Signal;HPM_P1;HPM_P2
2020/12/22 00:02:09;;;;;;;49.28;21.83;;;;;;;4.55;84.53;101247.97;4975827;28;20085;-78
2020/12/22 00:04:34;;;;;;;44.78;20.40;;;;;;;4.61;84.23;101261.06;4959506;28;20030;-77
2020/12/22 00:07:00;;;;;;;48.75;21.45;;;;;;;4.51;84.04;101239.22;4975924;28;20035;-79
2020/12/22 00:09:25;;;;;;;43.67;21.10;;;;;;;4.55;84.67;101254.13;4993473;28;20062;-76
2020/12/22 00:11:51;;;;;;;43.63;21.33;;;;;;;4.57;84.38;101257.63;4959241;28;20041;-77
2020/12/22 00:14:16;;;;;;;45.03;20.90;;;;;;;4.43;84.59;101227.06;4976272;28;20032;-77
2020/12/22 00:16:42;;;;;;;47.67;21.67;;;;;;;4.39;84.26;101210.41;4959784;28;20480;-78
2020/12/22 00:19:07;;;;;;;43.15;20.48;;;;;;;4.53;84.55;101242.69;4975976;28;20495;-78
2020/12/22 00:21:36;;;;;;;46.55;20.77;;;;;;;4.41;83.80;101210.38;4959526;28;20034;-78
2020/12/22 00:24:02;;;;;;;45.33;19.98;;;;;;;4.30;83.78;101205.31;4962917;28;20036;-78
2020/12/22 00:26:28;;;;;;;43.15;18.90;;;;;;;4.54;84.30;101247.13;5006406;28;20058;-77
2020/12/22 00:28:53;;;;;;;44.45;19.50;;;;;;;4.53;83.70;101245.34;5001224;28;20464;-77
2020/12/22 00:31:19;;;;;;;40.40;19.30;;;;;;;4.48;83.86;101223.44;4996629;28;20057;-78
2020/12/22 00:33:45;;;;;;;44.45;19.98;;;;;;;4.58;83.33;101239.97;4996536;28;20038;-76
2020/12/22 00:36:10;;;;;;;40.97;19.65;;;;;;;4.55;83.47;101219.78;4979059;28;20511;-77
2020/12/22 00:38:36;;;;;;;42.55;20.02;;;;;;;4.63;83.13;101232.81;4978725;28;20093;-77
2020/12/22 00:41:02;;;;;;;41.58;19.05;;;;;;;4.65;83.06;101230.19;4996542;28;20464;-77
2020/12/22 00:43:27;;;;;;;43.15;19.35;;;;;;;4.58;83.24;101221.50;4996222;28;20034;-78
2020/12/22 00:45:53;;;;;;;40.85;18.90;;;;;;;4.37;82.92;101182.28;4978806;28;20026;-78
2020/12/22 00:48:18;;;;;;;44.17;20.15;;;;;;;4.32;83.22;101179.72;4996447;28;20447;-77
2020/12/22 00:50:43;;;;;;;39.50;19.25;;;;;;;4.38;83.02;101192.81;4978487;28;20132;-79
2020/12/22 00:53:09;;;;;;;40.50;19.08;;;;;;;4.53;82.95;101218.91;4996461;28;20077;-79
2020/12/22 00:55:34;;;;;;;39.35;18.55;;;;;;;4.63;82.54;101224.88;4995890;28;20069;-77
2020/12/22 00:57:59;;;;;;;40.60;18.70;;;;;;;4.63;82.84;101229.31;4978573;28;20038;-78
2020/12/22 01:00:25;;;;;;;41.53;20.10;;;;;;;4.35;82.91;101195.53;4996063;28;20040;-78
2020/12/22 01:02:50;;;;;;;41.47;19.17;;;;;;;4.44;83.12;101237.63;4962013;28;20484;-77
2020/12/22 01:05:15;;;;;;;37.92;18.30;;;;;;;4.50;83.38;101241.91;4978475;28;20125;-78
2020/12/22 01:07:40;;;;;;;40.80;19.02;;;;;;;4.27;82.74;101205.38;4978187;28;20077;-78
2020/12/22 01:10:06;;;;;;;35.33;17.50;;;;;;;4.41;82.85;101221.81;4978378;28;20072;-78
2020/12/22 01:12:31;;;;;;;34.25;18.55;;;;;;;4.46;82.99;101222.59;4978347;28;20096;-78
2020/12/22 01:14:57;;;;;;;37.65;17.77;;;;;;;4.57;82.32;101207.41;4995502;28;20042;-79
2020/12/22 01:17:22;;;;;;;40.22;18.50;;;;;;;4.51;82.30;101194.31;4996077;28;20097;-80
2020/12/22 01:19:47;;;;;;;38.45;17.98;;;;;;;4.18;82.48;101140.41;4995810;28;20038;-79
2020/12/22 01:22:13;;;;;;;38.42;17.60;;;;;;;4.36;82.13;101159.44;4995538;28;20043;-79
2020/12/22 01:24:38;;;;;;;37.60;16.75;;;;;;;4.55;82.20;101177.50;4995106;28;20464;-80
2020/12/22 01:27:04;;;;;;;39.92;18.85;;;;;;;4.45;82.08;101154.81;4962001;28;20499;-80
2020/12/22 01:29:29;;;;;;;41.10;19.05;;;;;;;4.51;82.38;101157.31;4978095;28;20125;-80
2020/12/22 01:31:54;;;;;;;38.95;18.73;;;;;;;4.44;82.13;101174.22;4977919;28;20042;-77
2020/12/22 01:34:20;;;;;;;40.28;18.55;;;;;;;4.09;82.29;101140.59;4978103;28;20085;-76
2020/12/22 01:36:45;;;;;;;37.10;18.10;;;;;;;4.42;82.47;101213.00;4995535;28;20384;-78
2020/12/22 01:39:11;;;;;;;41.65;18.77;;;;;;;4.38;82.84;101231.59;4995222;28;20065;-79
2020/12/22 01:41:37;;;;;;;39.92;18.75;;;;;;;4.07;83.16;101163.50;4978167;28;20112;-79
2020/12/22 01:44:04;;;;;;;38.85;18.23;;;;;;;4.58;82.06;101203.88;4977906;28;20149;-80
2020/12/22 01:46:41;;;;;;;36.25;18.02;;;;;;;4.32;81.70;101156.81;4977675;28;20030;-79
2020/12/22 01:49:13;;;;;;;40.72;18.77;;;;;;;4.63;81.49;101197.59;4995152;28;20042;-80
2020/12/22 01:51:39;;;;;;;32.97;17.30;;;;;;;4.41;81.37;101150.50;4977186;28;20030;-82
2020/12/22 01:54:05;;;;;;;38.15;18.80;;;;;;;4.51;81.39;101180.22;4977978;28;20065;-80
2020/12/22 01:56:31;;;;;;;39.50;17.10;;;;;;;4.55;81.25;101193.38;4977908;28;20490;-76
2020/12/22 01:58:57;;;;;;;36.95;17.60;;;;;;;4.48;81.57;101196.16;4977169;28;20030;-76
2020/12/22 02:01:22;;;;;;;37.15;18.20;;;;;;;4.51;81.75;101198.72;4994741;28;20051;-77
2020/12/22 02:03:48;;;;;;;38.60;18.33;;;;;;;4.48;81.70;101202.31;4945383;28;20507;-74
2020/12/22 02:06:13;;;;;;;35.28;16.60;;;;;;;4.55;81.08;101188.09;4994737;28;20034;-78
2020/12/22 02:08:38;;;;;;;35.95;16.92;;;;;;;4.51;81.34;101177.59;4977311;28;20070;-78
2020/12/22 02:11:04;;;;;;;37.95;17.50;;;;;;;4.46;81.16;101161.84;4994086;28;20085;-78
2020/12/22 02:13:29;;;;;;;37.53;17.55;;;;;;;4.25;81.36;101125.31;4961188;28;20041;-77
2020/12/22 02:15:55;;;;;;;37.83;18.10;;;;;;;4.49;81.39;101166.19;4994224;28;20034;-78
2020/12/22 02:18:20;;;;;;;35.30;16.15;;;;;;;4.54;81.25;101162.56;4960980;28;20181;-77
2020/12/22 02:20:47;;;;;;;33.50;17.08;;;;;;;4.51;80.93;101161.75;4976610;28;20176;-78
2020/12/22 02:23:12;;;;;;;36.30;17.35;;;;;;;4.51;81.05;101169.66;4994325;28;20037;-77
2020/12/22 02:25:48;;;;;;;39.15;18.40;;;;;;;4.38;81.21;101154.97;4994607;28;20026;-77
2020/12/22 02:28:13;;;;;;;34.78;17.05;;;;;;;4.48;81.09;101165.31;4994641;28;20118;-77
2020/12/22 02:30:39;;;;;;;35.20;17.98;;;;;;;4.15;81.57;101118.44;4994378;28;20461;-78
2020/12/22 02:33:05;;;;;;;37.63;18.42;;;;;;;4.38;81.59;101147.91;4976624;28;20027;-77
2020/12/22 02:35:30;;;;;;;37.55;17.92;;;;;;;4.43;81.55;101153.97;4976838;28;20034;-77
2020/12/22 02:37:56;;;;;;;35.58;17.23;;;;;;;4.45;81.79;101154.81;4976831;28;20400;-84
2020/12/22 02:40:21;;;;;;;34.80;17.15;;;;;;;4.15;81.24;101094.69;4976809;28;20133;-79
2020/12/22 02:42:47;;;;;;;35.80;16.77;;;;;;;4.39;81.42;101160.22;4976635;28;20035;-80
2020/12/22 02:45:12;;;;;;;35.22;16.92;;;;;;;4.21;81.57;101137.69;4993508;28;20030;-80
2020/12/22 02:47:38;;;;;;;37.83;17.67;;;;;;;4.26;81.84;101156.97;4960409;28;20070;-80
2020/12/22 02:50:03;;;;;;;37.30;18.02;;;;;;;4.09;82.57;101126.50;4994113;28;20034;-80
2020/12/22 02:52:28;;;;;;;38.40;18.17;;;;;;;4.31;82.51;101172.72;4993921;28;20085;-79
2020/12/22 02:54:54;;;;;;;33.42;16.95;;;;;;;4.38;81.45;101176.97;4960284;28;20076;-76
2020/12/22 02:57:19;;;;;;;37.03;17.75;;;;;;;4.11;81.95;101122.94;4993792;28;20046;-76
2020/12/22 02:59:45;;;;;;;36.15;17.20;;;;;;;4.52;80.62;101161.69;4976565;28;20073;-77
2020/12/22 03:02:10;;;;;;;36.03;17.58;;;;;;;4.51;80.82;101167.88;4960389;28;20480;-75
2020/12/22 03:04:35;;;;;;;36.85;17.67;;;;;;;4.47;80.70;101168.88;4993640;28;20117;-77
2020/12/22 03:07:01;;;;;;;35.70;17.25;;;;;;;4.33;80.94;101155.06;4976050;28;20088;-78
2020/12/22 03:09:26;;;;;;;38.90;18.02;;;;;;;4.36;81.12;101170.88;4993987;28;20089;-78
2020/12/22 03:11:51;;;;;;;34.08;17.98;;;;;;;4.14;80.79;101119.34;4975753;28;20031;-77
2020/12/22 03:14:17;;;;;;;35.30;17.88;;;;;;;4.19;81.00;101128.94;4993664;28;20062;-77
2020/12/22 03:16:42;;;;;;;36.85;18.35;;;;;;;4.40;80.87;101161.09;4993476;28;20066;-76
2020/12/22 03:19:07;;;;;;;37.63;18.70;;;;;;;4.01;80.93;101106.41;4993649;28;20038;-77
2020/12/22 03:21:33;;;;;;;39.28;17.83;;;;;;;4.34;81.17;101171.78;4993604;28;20034;-80
2020/12/22 03:23:58;;;;;;;34.63;16.23;;;;;;;4.35;81.03;101171.75;4976029;28;20030;-80
2020/12/22 03:26:23;;;;;;;33.83;16.88;;;;;;;4.41;80.40;101152.25;4976180;28;20030;-78
2020/12/22 03:28:49;;;;;;;36.90;17.52;;;;;;;4.31;80.38;101138.38;4975883;28;20030;-78
2020/12/22 03:31:14;;;;;;;36.88;17.25;;;;;;;4.54;79.70;101157.28;4993506;28;20037;-77
2020/12/22 03:33:39;;;;;;;34.92;16.80;;;;;;;4.58;79.63;101151.00;4993930;28;20506;-76
2020/12/22 03:36:05;;;;;;;33.35;16.70;;;;;;;4.32;79.53;101095.22;4975697;28;20061;-77
2020/12/22 03:38:30;;;;;;;35.88;17.13;;;;;;;4.22;80.13;101106.88;4960295;28;20085;-77
2020/12/22 03:40:55;;;;;;;35.42;17.20;;;;;;;4.40;80.53;101132.91;4993617;28;20070;-85
2020/12/22 03:43:21;;;;;;;38.00;17.80;;;;;;;4.36;80.38;101130.38;4976091;28;20076;-83
2020/12/22 03:45:48;;;;;;;40.25;18.67;;;;;;;4.23;80.91;101143.81;4993446;28;20093;-77
2020/12/22 03:48:13;;;;;;;37.50;17.10;;;;;;;4.27;81.66;101144.63;4993276;28;20047;-78
2020/12/22 03:50:39;;;;;;;38.08;17.35;;;;;;;4.10;81.16;101130.88;4976530;28;20118;-81
2020/12/22 03:53:04;;;;;;;35.30;17.38;;;;;;;4.26;81.47;101142.91;4993162;28;20039;-80
2020/12/22 03:55:29;;;;;;;35.72;16.92;;;;;;;4.19;80.87;101112.22;4976121;28;20480;-76
2020/12/22 03:57:55;;;;;;;38.28;17.40;;;;;;;4.30;81.23;101131.34;4994622;28;20045;-77
2020/12/22 04:00:20;;;;;;;34.42;17.33;;;;;;;4.31;81.00;101130.44;4979583;28;20065;-76
2020/12/22 04:02:46;;;;;;;34.97;16.75;;;;;;;4.12;80.95;101102.69;4963496;28;20515;-76
2020/12/22 04:05:11;;;;;;;37.20;17.25;;;;;;;4.20;81.50;101130.66;4996859;28;20125;-75
2020/12/22 04:07:37;;;;;;;38.53;17.45;;;;;;;4.29;81.10;101127.84;4979583;28;20369;-77
2020/12/22 04:10:07;;;;;;;36.10;17.15;;;;;;;4.23;80.92;101095.41;4979450;28;20038;-77
2020/12/22 04:12:33;;;;;;;35.05;16.27;;;;;;;4.34;80.60;101103.97;4997022;28;20038;-78
2020/12/22 04:14:59;;;;;;;35.75;15.88;;;;;;;4.31;80.40;101075.84;5004650;28;20392;-77
2020/12/22 04:17:25;;;;;;;36.13;17.25;;;;;;;4.25;80.24;101088.34;4966774;28;20038;-75
2020/12/22 04:19:50;;;;;;;37.78;16.45;;;;;;;4.18;80.75;101070.88;4979368;28;20034;-77
2020/12/22 04:22:15;;;;;;;35.15;16.30;;;;;;;4.41;80.14;101089.72;4979630;28;20567;-78
2020/12/22 04:24:41;;;;;;;36.55;15.88;;;;;;;4.30;80.04;101079.41;4963396;28;20040;-77
2020/12/22 04:27:06;;;;;;;37.28;16.67;;;;;;;4.12;80.75;101049.88;4978865;28;20039;-76
2020/12/22 04:29:32;;;;;;;37.75;17.25;;;;;;;4.44;80.52;101079.13;4947236;28;20070;-75
2020/12/22 04:31:57;;;;;;;38.38;16.38;;;;;;;4.16;80.66;101035.72;4996214;28;20088;-77
2020/12/22 04:34:25;;;;;;;38.65;17.55;;;;;;;4.24;80.88;101068.94;4996735;28;20459;-76
2020/12/22 04:36:50;;;;;;;37.40;17.27;;;;;;;4.29;80.78;101059.19;4996408;28;20048;-77
2020/12/22 04:39:16;;;;;;;40.33;18.85;;;;;;;4.09;81.37;101036.75;4979230;28;20531;-78
2020/12/22 04:41:47;;;;;;;36.47;17.23;;;;;;;4.37;81.09;101061.66;4996426;28;20121;-78
2020/12/22 04:44:13;;;;;;;34.53;17.17;;;;;;;4.31;80.97;101056.50;4996065;28;20038;-76
2020/12/22 04:46:39;;;;;;;39.05;17.52;;;;;;;4.25;81.24;101056.66;4996450;28;20081;-77
2020/12/22 04:49:09;;;;;;;42.78;18.75;;;;;;;4.30;81.51;101050.34;4978662;28;20435;-78
2020/12/22 04:51:37;;;;;;;39.90;17.98;;;;;;;4.25;81.30;101038.16;4996419;28;20034;-77
2020/12/22 04:54:02;;;;;;;35.15;17.45;;;;;;;4.01;80.93;100990.25;4962376;28;20038;-76
2020/12/22 04:56:29;;;;;;;37.05;18.88;;;;;;;4.32;81.64;101045.03;4996132;28;20038;-76
2020/12/22 04:58:55;;;;;;;38.70;17.13;;;;;;;4.30;81.69;101055.63;4978382;28;20113;-76
2020/12/22 05:01:21;;;;;;;38.55;17.48;;;;;;;4.28;81.75;101051.28;4995874;28;20137;-78
2020/12/22 05:03:46;;;;;;;38.95;17.85;;;;;;;4.25;81.88;101041.66;4978694;28;20034;-77
2020/12/22 05:06:12;;;;;;;37.25;17.52;;;;;;;4.13;82.13;101025.19;4978285;28;20041;-79
2020/12/22 05:08:37;;;;;;;38.05;16.73;;;;;;;4.20;82.34;101045.31;4962064;28;20030;-78
2020/12/22 05:11:02;;;;;;;40.58;18.27;;;;;;;3.96;82.87;101007.97;4995473;28;20117;-78
2020/12/22 05:13:28;;;;;;;44.17;18.05;;;;;;;4.21;82.53;101049.69;4978684;28;20381;-77
2020/12/22 05:15:53;;;;;;;37.22;17.63;;;;;;;4.09;82.98;101027.03;4977976;28;20042;-77
2020/12/22 05:18:23;;;;;;;37.78;18.20;;;;;;;4.23;83.09;101047.88;4978176;28;20046;-75
2020/12/22 05:20:49;;;;;;;39.90;19.17;;;;;;;3.91;83.34;100996.63;4996138;28;20034;-77
2020/12/22 05:23:20;;;;;;;38.83;18.52;;;;;;;4.23;83.18;101050.50;4978283;28;20120;-78
2020/12/22 05:25:48;;;;;;;39.78;18.70;;;;;;;4.24;83.20;101055.75;4995648;28;20030;-76
2020/12/22 05:28:16;;;;;;;39.63;18.35;;;;;;;4.20;83.51;101051.44;4995352;28;20061;-77
2020/12/22 05:30:46;;;;;;;41.70;18.95;;;;;;;4.20;83.23;101045.31;4978238;28;20490;-78
2020/12/22 05:33:11;;;;;;;40.88;18.02;;;;;;;4.24;83.19;101060.16;4977869;28;20046;-78
2020/12/22 05:35:56;;;;;;;42.75;20.02;;;;;;;4.32;83.29;101047.66;4978313;28;20488;-79
2020/12/22 05:38:21;;;;;;;36.35;18.27;;;;;;;4.39;82.67;101051.91;4962050;28;20045;-79
2020/12/22 05:40:48;;;;;;;40.63;18.92;;;;;;;4.30;83.01;101060.03;4977853;28;20034;-78
2020/12/22 05:43:14;;;;;;;38.88;18.38;;;;;;;4.02;83.36;101021.03;4994844;28;20510;-76
2020/12/22 05:45:43;;;;;;;41.33;19.92;;;;;;;4.12;84.34;101055.16;4978269;28;20030;-77
2020/12/22 05:48:14;;;;;;;41.15;19.80;;;;;;;4.03;84.35;101046.50;4994728;28;20049;-80
2020/12/22 05:50:40;;;;;;;44.65;19.52;;;;;;;4.20;84.31;101066.44;4995298;28;20049;-78
2020/12/22 05:53:09;;;;;;;40.05;19.40;;;;;;;4.16;84.63;101076.19;4994936;28;20034;-78
2020/12/22 05:55:34;;;;;;;43.13;19.73;;;;;;;4.13;84.56;101072.72;4995250;28;20037;-75
2020/12/22 05:58:13;;;;;;;44.83;20.00;;;;;;;4.17;85.61;101082.34;4994770;28;20038;-78
2020/12/22 06:00:41;;;;;;;45.28;20.77;;;;;;;4.08;86.47;101086.03;4977744;28;20034;-78
2020/12/22 06:03:09;;;;;;;44.05;19.77;;;;;;;4.02;86.58;101087.03;4994524;28;20522;-78
2020/12/22 06:05:39;;;;;;;44.28;20.88;;;;;;;4.21;86.24;101084.00;4977269;28;20050;-78
2020/12/22 06:08:07;;;;;;;44.20;20.50;;;;;;;4.14;85.77;101063.91;4994358;28;20423;-78
2020/12/22 06:10:34;;;;;;;43.97;20.35;;;;;;;4.12;86.27;101081.56;4995216;28;20034;-78
2020/12/22 06:12:59;;;;;;;40.63;19.55;;;;;;;4.09;85.94;101061.38;4977364;28;20034;-76
2020/12/22 06:15:26;;;;;;;40.70;18.65;;;;;;;4.23;85.75;101072.50;4994751;28;20034;-78
2020/12/22 06:17:51;;;;;;;40.10;18.80;;;;;;;4.25;85.59;101073.38;4977202;28;20047;-78
2020/12/22 06:20:25;;;;;;;42.60;20.02;;;;;;;4.25;85.39;101068.09;4993349;28;20033;-77
2020/12/22 06:22:50;;;;;;;;;;;;;;;4.23;85.78;101074.28;4977570;28;20129;-77
2020/12/22 06:25:22;;;;;;;41.05;18.40;;;;;;;3.94;86.29;101030.00;4994120;28;20012;-78
2020/12/22 06:27:48;;;;;;;45.85;21.00;;;;;;;4.22;86.00;101078.69;4976965;28;20030;-78
2020/12/22 06:30:16;;;;;;;42.63;20.02;;;;;;;3.78;86.48;101023.31;4976522;28;20049;-78
2020/12/22 06:32:42;;;;;;;42.88;20.05;;;;;;;4.11;86.39;101061.34;4994176;28;20073;-78
2020/12/22 06:35:29;;;;;;;39.63;19.40;;;;;;;4.16;86.45;101073.56;4993648;28;20381;-78
2020/12/22 06:37:55;;;;;;;41.42;19.05;;;;;;;4.14;86.82;101074.47;4977462;28;20546;-78
2020/12/22 06:40:55;;;;;;;45.33;19.88;;;;;;;4.21;86.16;101076.09;4993976;28;20063;-77
2020/12/22 06:43:43;;;;;;;43.10;19.17;;;;;;;4.12;86.76;101066.56;4976649;28;20037;-81
2020/12/22 06:46:29;;;;;;;43.80;19.65;;;;;;;4.01;86.78;101055.38;4993684;28;20030;-83
2020/12/22 06:48:55;;;;;;;42.25;19.65;;;;;;;3.96;86.33;101033.50;4979476;28;20138;-83
2020/12/22 06:51:34;;;;;;;42.42;20.25;;;;;;;4.07;87.07;101064.94;4976222;28;20132;-84
2020/12/22 06:54:25;;;;;;;42.15;19.48;;;;;;;3.96;87.71;101071.31;4976946;28;20069;-78
2020/12/22 06:56:51;;;;;;;43.03;19.85;;;;;;;3.92;88.58;101074.91;4987093;28;20064;-80
2020/12/22 06:59:42;;;;;;;44.20;21.15;;;;;;;4.00;88.28;101082.69;4976541;28;20466;-81
2020/12/22 07:02:45;;;;;;;44.33;20.52;;;;;;;3.97;88.21;101074.81;4976177;28;20046;-81
2020/12/22 07:05:10;;;;;;;40.67;18.95;;;;;;;4.03;87.95;101064.13;4993626;28;20110;-80
2020/12/22 07:07:58;;;;;;;46.13;20.38;;;;;;;4.02;87.88;101044.78;4960512;28;20117;-80
2020/12/22 07:10:27;;;;;;;42.03;20.27;;;;;;;4.02;88.13;101060.63;4976151;28;20037;-80
2020/12/22 07:12:54;;;;;;;47.70;21.38;;;;;;;3.86;87.98;101022.25;4993830;28;20124;-79
2020/12/22 07:15:20;;;;;;;43.08;20.15;;;;;;;3.93;88.03;101034.41;4976107;28;20053;-78
2020/12/22 07:17:45;;;;;;;44.45;21.20;;;;;;;3.80;88.96;101063.72;4994209;28;20386;-79
2020/12/22 07:20:11;;;;;;;44.97;21.42;;;;;;;3.79;89.44;101051.44;4944075;28;20042;-79
2020/12/22 07:22:36;;;;;;;44.05;20.80;;;;;;;3.95;89.24;101059.00;4993839;28;20042;-76
2020/12/22 07:25:05;;;;;;;42.08;20.30;;;;;;;3.99;88.82;101050.13;4993049;28;20057;-76
2020/12/22 07:27:33;;;;;;;45.63;19.90;;;;;;;4.08;87.98;101048.22;4993503;28;20118;-77
2020/12/22 07:29:59;;;;;;;46.10;20.85;;;;;;;3.99;88.49;101036.94;4993420;28;20447;-75
2020/12/22 07:32:25;;;;;;;41.17;19.38;;;;;;;4.01;88.93;101050.97;4962299;28;20129;-77
2020/12/22 07:34:50;;;;;;;44.42;20.50;;;;;;;4.05;88.51;101046.47;4964037;28;20077;-75
2020/12/22 07:37:16;;;;;;;43.40;20.65;;;;;;;4.09;88.61;101050.81;4997171;28;20038;-76
2020/12/22 07:39:41;;;;;;;47.60;21.65;;;;;;;4.06;89.25;101050.00;4979774;28;20034;-78
2020/12/22 07:42:15;;;;;;;52.90;24.55;;;;;;;4.17;88.09;101048.00;4997247;28;20030;-76
2020/12/22 07:44:42;;;;;;;56.13;27.48;;;;;;;3.75;88.86;101003.09;4980189;28;20026;-76
2020/12/22 07:47:08;;;;;;;53.25;24.35;;;;;;;4.09;88.40;101049.94;4996711;28;20030;-76
2020/12/22 07:49:34;;;;;;;51.10;22.25;;;;;;;3.97;88.40;101036.09;4979950;28;20042;-76
2020/12/22 07:51:59;;;;;;;48.97;22.13;;;;;;;3.90;88.44;101008.09;4963498;28;20038;-76
2020/12/22 07:54:26;;;;;;;47.35;21.33;;;;;;;3.86;88.62;101024.91;4996693;28;20632;-76
2020/12/22 07:56:52;;;;;;;45.42;21.23;;;;;;;3.68;88.23;100988.31;4979998;28;20039;-77
2020/12/22 07:59:17;;;;;;;44.65;21.23;;;;;;;4.06;88.41;101048.25;4979514;28;20089;-80
2020/12/22 08:01:45;;;;;;;42.42;21.05;;;;;;;3.80;88.42;101018.88;4979570;28;20047;-79
2020/12/22 08:04:22;;;;;;;44.33;20.67;;;;;;;3.92;88.37;101026.53;4986785;28;20038;-77
2020/12/22 08:06:54;;;;;;;46.65;21.35;;;;;;;4.06;88.56;101052.66;5004866;28;20147;-77
2020/12/22 08:09:39;;;;;;;48.47;21.63;;;;;;;3.93;89.08;101039.69;4997317;28;20468;-78
2020/12/22 08:12:07;;;;;;;45.03;20.98;;;;;;;4.12;88.16;101044.59;4996909;28;20062;-80
2020/12/22 08:14:37;;;;;;;44.53;20.88;;;;;;;4.13;88.13;101059.53;4979559;28;20038;-76
2020/12/22 08:17:07;;;;;;;43.38;20.63;;;;;;;4.05;88.66;101048.25;4979109;28;20026;-76
2020/12/22 08:19:36;;;;;;;50.05;22.92;;;;;;;4.05;88.54;101048.25;4996442;28;20054;-78
2020/12/22 08:22:04;;;;;;;46.47;21.25;;;;;;;4.01;89.49;101052.72;4963428;28;20034;-77
2020/12/22 08:24:30;;;;;;;44.60;21.70;;;;;;;4.11;89.24;101053.41;4996544;28;20084;-77
2020/12/22 08:26:56;;;;;;;47.80;21.55;;;;;;;4.13;89.18;101051.59;4996568;28;20036;-76
2020/12/22 08:29:23;;;;;;;45.63;20.95;;;;;;;4.08;89.32;101038.50;4962874;28;20125;-76
2020/12/22 08:31:53;;;;;;;44.92;20.50;;;;;;;4.24;88.22;101039.03;4996421;28;20081;-78
2020/12/22 08:34:19;;;;;;;46.03;21.83;;;;;;;4.22;88.27;101036.44;4996013;28;20113;-78
2020/12/22 08:36:45;;;;;;;46.55;21.67;;;;;;;4.26;88.44;101043.41;4979353;28;20136;-75
2020/12/22 08:39:17;;;;;;;44.05;21.02;;;;;;;4.27;87.53;101049.56;4996015;28;20069;-75
2020/12/22 08:41:44;;;;;;;49.00;21.75;;;;;;;4.11;89.15;101048.13;4996797;28;20049;-74
2020/12/22 08:44:11;;;;;;;46.75;22.15;;;;;;;3.88;89.29;101007.25;4996479;28;20022;-76
2020/12/22 08:46:40;;;;;;;45.33;21.77;;;;;;;4.25;88.57;101051.38;4981204;28;20049;-79
2020/12/22 08:49:10;;;;;;;45.50;22.27;;;;;;;4.20;88.99;101061.16;4978185;28;20038;-80
2020/12/22 08:51:35;;;;;;;42.08;20.10;;;;;;;4.08;88.99;101038.50;4978284;28;20128;-79
2020/12/22 08:54:02;;;;;;;45.03;21.60;;;;;;;3.92;89.14;101021.25;4996447;28;20066;-79
2020/12/22 08:56:27;;;;;;;45.38;21.75;;;;;;;3.96;88.61;101030.84;4995744;28;20431;-76
2020/12/22 08:58:55;;;;;;;46.10;22.20;;;;;;;3.99;88.83;101036.06;4996022;28;20046;-79
2020/12/22 09:01:21;;;;;;;49.03;23.50;;;;;;;3.99;90.10;101034.28;4995759;28;20054;-84
2020/12/22 09:03:52;;;;;;;44.53;21.50;;;;;;;3.90;89.61;100986.09;4995949;28;20066;-79
2020/12/22 09:06:18;;;;;;;48.13;22.17;;;;;;;4.14;89.54;101011.09;4992943;28;20490;-82
2020/12/22 09:08:46;;;;;;;44.83;21.67;;;;;;;4.17;89.37;101004.00;4994660;28;20030;-82
2020/12/22 09:11:19;;;;;;;47.97;22.60;;;;;;;4.23;88.93;101000.31;4994194;28;20035;-79
2020/12/22 09:13:45;;;;;;;47.83;22.17;;;;;;;4.27;89.22;101008.16;4993301;28;20444;-75
2020/12/22 09:16:10;;;;;;;46.25;21.17;;;;;;;4.26;88.89;100993.22;4994793;28;20113;-79
2020/12/22 09:18:37;;;;;;;42.63;20.88;;;;;;;4.34;88.10;100987.75;4992035;28;20377;-75
2020/12/22 09:21:09;;;;;;;42.08;21.20;;;;;;;4.37;88.24;100986.84;4994595;28;20476;-77
2020/12/22 09:23:44;;;;;;;46.25;21.15;;;;;;;4.31;88.18;100993.09;4977688;28;20476;-78
2020/12/22 09:26:10;;;;;;;46.03;21.90;;;;;;;4.25;88.99;100996.78;4994447;28;20387;-78
2020/12/22 09:28:36;;;;;;;55.85;25.73;;;;;;;4.19;89.42;100959.94;4993628;28;20038;-80
2020/12/22 09:31:01;;;;;;;58.00;24.50;;;;;;;4.00;89.55;100938.34;4977733;28;20118;-81
2020/12/22 09:33:26;;;;;;;41.28;20.58;;;;;;;4.28;89.34;100978.22;5001068;28;20036;-84
2020/12/22 09:35:52;;;;;;;44.47;20.60;;;;;;;3.95;89.19;100927.00;4989836;28;20048;-77
2020/12/22 09:38:17;;;;;;;48.47;22.50;;;;;;;4.13;89.18;100954.78;4994566;28;20039;-75
2020/12/22 09:40:43;;;;;;;46.05;22.42;;;;;;;4.15;89.69;100965.28;5004255;28;20041;-79
2020/12/22 09:43:08;;;;;;;45.92;22.92;;;;;;;3.98;89.82;100940.16;4999600;28;20026;-77
2020/12/22 09:45:34;;;;;;;48.05;22.00;;;;;;;4.18;89.14;100965.25;5010495;28;20034;-78
2020/12/22 09:47:59;;;;;;;48.20;22.45;;;;;;;4.03;89.79;100946.19;4964613;28;20061;-78
2020/12/22 09:50:25;;;;;;;46.38;22.55;;;;;;;3.98;90.12;100944.56;5014135;28;20037;-86
2020/12/22 09:52:50;;;;;;;47.88;22.55;;;;;;;4.06;90.05;100961.13;5003079;28;20514;-77
2020/12/22 09:55:16;;;;;;;45.90;21.83;;;;;;;3.66;90.41;100910.94;5008621;28;20784;-79
2020/12/22 09:57:41;;;;;;;49.47;22.85;;;;;;;3.96;90.37;100952.53;4997377;28;20088;-78
2020/12/22 10:00:07;;;;;;;42.75;21.65;;;;;;;3.99;89.65;100928.69;5007754;28;20030;-81
2020/12/22 10:02:32;;;;;;;44.50;22.67;;;;;;;3.89;89.98;100915.75;4981122;28;20050;-79
2020/12/22 10:04:58;;;;;;;43.90;21.60;;;;;;;4.19;89.81;100932.66;4981831;28;20034;-82
2020/12/22 10:07:24;;;;;;;47.45;22.98;;;;;;;4.19;89.28;100930.03;4989379;28;20030;-76
2020/12/22 10:09:50;;;;;;;43.67;21.33;;;;;;;4.27;88.77;100922.78;4973999;28;20121;-76
2020/12/22 10:12:15;;;;;;;43.20;21.83;;;;;;;4.22;88.99;100908.81;4955994;28;20147;-80
2020/12/22 10:14:41;;;;;;;51.58;23.45;;;;;;;4.21;89.44;100929.06;4967112;28;20090;-74
2020/12/22 10:17:07;;;;;;;49.42;23.70;;;;;;;4.09;89.74;100923.22;4964438;28;20042;-73
2020/12/22 10:19:33;;;;;;;50.20;24.50;;;;;;;4.02;90.04;100915.41;4953941;28;20043;-73
2020/12/22 10:21:59;;;;;;;50.08;23.25;;;;;;;4.12;90.05;100933.69;4956447;28;20097;-73
2020/12/22 10:24:24;;;;;;;55.55;25.23;;;;;;;4.16;90.15;100940.66;4956698;28;20039;-76
2020/12/22 10:26:50;;;;;;;54.03;26.17;;;;;;;4.25;89.68;100943.09;4974240;28;20042;-72
2020/12/22 10:29:15;;;;;;;51.63;25.52;;;;;;;4.26;89.73;100947.47;4972344;28;20034;-75
2020/12/22 10:31:40;;;;;;;58.45;24.60;;;;;;;4.30;89.85;100939.41;4940546;28;20396;-78
2020/12/22 10:34:06;;;;;;;51.25;24.02;;;;;;;4.16;89.34;100924.81;4973673;28;20039;-76
2020/12/22 10:36:32;;;;;;;53.17;25.15;;;;;;;4.28;88.89;100929.81;4973612;28;20081;-75
2020/12/22 10:38:58;;;;;;;51.60;23.48;;;;;;;4.35;89.01;100923.47;4972318;28;20035;-75
2020/12/22 10:41:25;;;;;;;53.35;25.48;;;;;;;4.35;88.90;100909.41;4973320;28;20054;-77
2020/12/22 10:43:52;;;;;;;47.15;23.92;;;;;;;4.50;88.87;100916.94;4972637;28;20391;-75
2020/12/22 10:46:17;;;;;;;51.10;24.27;;;;;;;4.29;88.77;100878.72;4956162;28;20039;-76
2020/12/22 10:48:44;;;;;;;57.90;26.42;;;;;;;4.43;88.75;100918.84;4972472;28;20173;-78
2020/12/22 10:51:11;;;;;;;54.60;27.77;;;;;;;4.34;89.53;100934.91;4972101;28;20518;-74
2020/12/22 10:53:37;;;;;;;62.38;29.55;;;;;;;4.26;89.75;100919.28;4972254;28;20428;-78
2020/12/22 10:56:07;;;;;;;65.95;29.00;;;;;;;4.42;89.67;100901.28;4973930;28;20038;-73
2020/12/22 10:58:33;;;;;;;59.60;27.95;;;;;;;4.38;89.02;100894.34;4971834;28;20487;-73
2020/12/22 11:00:59;;;;;;;58.97;26.95;;;;;;;4.47;88.50;100883.53;4973544;28;20116;-79
2020/12/22 11:03:25;;;;;;;54.45;26.52;;;;;;;4.52;88.30;100892.22;4959365;28;20459;-72
2020/12/22 11:06:19;;;;;;;60.53;27.70;;;;;;;4.42;89.60;100884.56;4974954;28;20057;-74
2020/12/22 11:08:45;;;;;;;59.25;26.70;;;;;;;4.37;88.90;100860.91;4979303;28;20042;-74
2020/12/22 11:11:11;;;;;;;56.88;24.60;;;;;;;4.46;88.85;100881.81;4974718;28;20093;-75
2020/12/22 11:13:37;;;;;;;61.22;27.05;;;;;;;4.44;88.80;100891.56;4992731;28;20411;-75
2020/12/22 11:16:07;;;;;;;66.80;27.33;;;;;;;4.50;88.71;100890.53;4993050;28;20117;-77
2020/12/22 11:18:34;;;;;;;68.97;28.77;;;;;;;4.36;88.96;100884.72;4988181;28;20049;-74